Time;durP1;ratioP1;P1;durP2;ratioP2;P2;SDS_P1;SDS_P2;PMS_P1;PMS_P2;Temp;Humidity;BMP_temperature;BMP_pressure;BME280_temperature;BME280_humidity;BME280_pressure;Samples;Min_cycle;Max_cycle;Signal;HPM_P1;HPM_P2
2023/12/02 00:00:08;;;;;;;80.50;42.70;;;;;;;-128.00;-1.00;-1.00;103092;1258;1004223;-79
2023/12/02 00:02:55;;;;;;;78.30;39.50;;;;;;;-128.00;-1.00;-1.00;103142;1254;1063340;-80
2023/12/02 00:05:21;;;;;;;79.60;40.40;;;;;;;-128.00;-1.00;-1.00;105601;1254;1005007;-79
2023/12/02 00:07:48;;;;;;;74.70;39.90;;;;;;;-128.00;-1.00;-1.00;105612;1257;1004327;-79
2023/12/02 00:10:15;;;;;;;78.20;41.60;;;;;;;-128.00;-1.00;-1.00;105623;1253;1004067;-79
2023/12/02 00:12:41;;;;;;;80.60;39.60;;;;;;;-128.00;-1.00;-1.00;105617;1254;1004359;-79
2023/12/02 00:15:08;;;;;;;66.60;36.60;;;;;;;-128.00;-1.00;-1.00;105400;1253;1005252;-79
2023/12/02 00:17:35;;;;;;;114.30;54.70;;;;;;;-128.00;-1.00;-1.00;105627;1253;1003875;-79
2023/12/02 00:20:02;;;;;;;72.30;36.90;;;;;;;-128.00;-1.00;-1.00;105633;1253;1003497;-80
2023/12/02 00:22:29;;;;;;;73.00;36.70;;;;;;;-128.00;-1.00;-1.00;105608;1254;1004000;-79
2023/12/02 00:24:56;;;;;;;72.80;41.00;;;;;;;-128.00;-1.00;-1.00;105447;1254;1004688;-79
2023/12/02 00:27:22;;;;;;;80.70;40.80;;;;;;;-128.00;-1.00;-1.00;105393;1254;1003777;-79
2023/12/02 00:29:49;;;;;;;76.60;41.20;;;;;;;-128.00;-1.00;-1.00;105637;1253;1004275;-79
2023/12/02 00:32:17;;;;;;;85.40;43.70;;;;;;;-128.00;-1.00;-1.00;104706;1253;1004126;-79
2023/12/02 00:34:43;;;;;;;84.70;42.90;;;;;;;-128.00;-1.00;-1.00;105616;1255;1003391;-79
2023/12/02 00:37:10;;;;;;;91.90;48.20;;;;;;;-128.00;-1.00;-1.00;105623;1254;1004993;-79
2023/12/02 00:39:37;;;;;;;91.20;41.00;;;;;;;-128.00;-1.00;-1.00;103151;1254;1004350;-79
2023/12/02 00:42:04;;;;;;;101.40;48.30;;;;;;;-128.00;-1.00;-1.00;102975;1254;1004880;-78
2023/12/02 00:44:31;;;;;;;115.50;51.80;;;;;;;-128.00;-1.00;-1.00;102916;1254;1005968;-79
2023/12/02 00:46:57;;;;;;;87.50;44.20;;;;;;;-128.00;-1.00;-1.00;102837;1259;1004455;-79
2023/12/02 00:49:24;;;;;;;81.40;38.70;;;;;;;-128.00;-1.00;-1.00;103074;1255;1004335;-79
2023/12/02 00:51:51;;;;;;;78.10;36.70;;;;;;;-128.00;-1.00;-1.00;105429;1254;1004322;-79
2023/12/02 00:54:17;;;;;;;108.10;62.40;;;;;;;-128.00;-1.00;-1.00;105506;1258;1004808;-79
2023/12/02 00:56:45;;;;;;;91.00;49.80;;;;;;;-128.00;-1.00;-1.00;105543;1254;1003911;-79
2023/12/02 00:59:12;;;;;;;73.00;41.70;;;;;;;-128.00;-1.00;-1.00;105407;1254;1004323;-79
2023/12/02 01:01:38;;;;;;;70.20;36.40;;;;;;;-128.00;-1.00;-1.00;105515;1254;1003862;-79
2023/12/02 01:04:05;;;;;;;67.50;34.70;;;;;;;-128.00;-1.00;-1.00;105524;1254;1003660;-79
2023/12/02 01:06:31;;;;;;;77.90;41.10;;;;;;;-128.00;-1.00;-1.00;105511;1254;1004612;-79
2023/12/02 01:08:58;;;;;;;80.90;45.60;;;;;;;-128.00;-1.00;-1.00;105538;1254;1003876;-79
2023/12/02 01:11:25;;;;;;;69.50;36.50;;;;;;;-128.00;-1.00;-1.00;105536;1254;1004145;-79
2023/12/02 01:13:51;;;;;;;81.10;48.00;;;;;;;-128.00;-1.00;-1.00;105508;1254;1003994;-79
2023/12/02 01:16:18;;;;;;;75.00;42.80;;;;;;;-128.00;-1.00;-1.00;105508;1254;1004685;-79
2023/12/02 01:18:44;;;;;;;84.40;43.70;;;;;;;-128.00;-1.00;-1.00;105529;1254;1005138;-79
2023/12/02 01:21:11;;;;;;;75.00;40.00;;;;;;;-128.00;-1.00;-1.00;105508;1254;1004084;-79
2023/12/02 01:23:38;;;;;;;72.30;36.70;;;;;;;-128.00;-1.00;-1.00;105629;1254;1004438;-79
2023/12/02 01:26:05;;;;;;;70.40;38.60;;;;;;;-128.00;-1.00;-1.00;105669;1254;1004874;-79
2023/12/02 01:28:31;;;;;;;70.60;36.00;;;;;;;-128.00;-1.00;-1.00;105654;1254;1003842;-79
2023/12/02 01:30:58;;;;;;;79.80;46.30;;;;;;;-128.00;-1.00;-1.00;105552;1254;1003416;-79
2023/12/02 01:33:24;;;;;;;68.90;39.40;;;;;;;-128.00;-1.00;-1.00;103117;1254;1004817;-79
2023/12/02 01:35:51;;;;;;;75.50;43.70;;;;;;;-128.00;-1.00;-1.00;103074;1255;1004715;-79
2023/12/02 01:38:17;;;;;;;96.40;49.50;;;;;;;-128.00;-1.00;-1.00;103153;1254;1005268;-79
2023/12/02 01:40:44;;;;;;;80.00;41.10;;;;;;;-128.00;-1.00;-1.00;103084;1253;1004358;-79
2023/12/02 01:43:25;;;;;;;72.90;38.00;;;;;;;-128.00;-1.00;-1.00;103012;1254;1004068;-79
2023/12/02 01:45:51;;;;;;;75.60;38.80;;;;;;;-128.00;-1.00;-1.00;103054;1254;1059035;-79
2023/12/02 01:48:19;;;;;;;65.60;35.00;;;;;;;-128.00;-1.00;-1.00;103497;1255;1004655;-79
2023/12/02 01:50:46;;;;;;;71.90;37.40;;;;;;;-128.00;-1.00;-1.00;105653;1253;1003973;-79
2023/12/02 01:53:13;;;;;;;75.60;38.20;;;;;;;-128.00;-1.00;-1.00;104972;1254;1004194;-79
2023/12/02 01:55:39;;;;;;;76.40;37.30;;;;;;;-128.00;-1.00;-1.00;102844;1254;1004447;-79
2023/12/02 01:58:06;;;;;;;85.20;45.30;;;;;;;-128.00;-1.00;-1.00;103015;1254;1004068;-79
2023/12/02 02:00:33;;;;;;;74.10;38.90;;;;;;;-128.00;-1.00;-1.00;102926;1254;1003877;-79
2023/12/02 02:03:00;;;;;;;70.80;40.10;;;;;;;-128.00;-1.00;-1.00;103114;1254;1004500;-79
2023/12/02 02:05:27;;;;;;;83.70;45.30;;;;;;;-128.00;-1.00;-1.00;105476;1254;1003424;-79
2023/12/02 02:07:53;;;;;;;69.50;39.40;;;;;;;-128.00;-1.00;-1.00;105473;1254;1004281;-79
2023/12/02 02:10:23;;;;;;;76.50;38.60;;;;;;;-128.00;-1.00;-1.00;105450;1254;1003773;-79
2023/12/02 02:12:49;;;;;;;64.10;35.80;;;;;;;-128.00;-1.00;-1.00;105448;1254;1046080;-79
2023/12/02 02:15:16;;;;;;;102.30;56.50;;;;;;;-128.00;-1.00;-1.00;105475;1254;1003941;-79
2023/12/02 02:17:42;;;;;;;76.70;42.10;;;;;;;-128.00;-1.00;-1.00;105499;1254;1004074;-79
2023/12/02 02:20:09;;;;;;;70.30;38.00;;;;;;;-128.00;-1.00;-1.00;105003;1257;1003866;-79
2023/12/02 02:22:36;;;;;;;61.60;34.00;;;;;;;-128.00;-1.00;-1.00;103161;1254;1004742;-79
2023/12/02 02:25:03;;;;;;;66.70;36.70;;;;;;;-128.00;-1.00;-1.00;103233;1256;1004752;-79
2023/12/02 02:27:29;;;;;;;80.30;48.40;;;;;;;-128.00;-1.00;-1.00;103185;1253;1004620;-79
2023/12/02 02:29:56;;;;;;;67.90;37.40;;;;;;;-128.00;-1.00;-1.00;103965;1253;1004024;-79
2023/12/02 02:32:22;;;;;;;78.60;43.90;;;;;;;-128.00;-1.00;-1.00;104062;1254;1004700;-79
2023/12/02 02:34:49;;;;;;;82.80;42.60;;;;;;;-128.00;-1.00;-1.00;104858;1254;1004345;-79
2023/12/02 02:37:15;;;;;;;73.00;41.50;;;;;;;-128.00;-1.00;-1.00;105089;1254;1004144;-79
2023/12/02 02:39:42;;;;;;;68.80;35.20;;;;;;;-128.00;-1.00;-1.00;104752;1254;1006277;-79
2023/12/02 02:42:09;;;;;;;61.30;32.90;;;;;;;-128.00;-1.00;-1.00;103829;1254;1003752;-79
2023/12/02 02:44:36;;;;;;;62.00;33.40;;;;;;;-128.00;-1.00;-1.00;103291;1254;1004436;-79
2023/12/02 02:47:03;;;;;;;67.10;35.00;;;;;;;-128.00;-1.00;-1.00;103316;1254;1004704;-79
2023/12/02 02:49:30;;;;;;;72.10;40.00;;;;;;;-128.00;-1.00;-1.00;103110;1253;1004486;-79
2023/12/02 02:51:57;;;;;;;88.60;44.90;;;;;;;-128.00;-1.00;-1.00;103160;1254;1004415;-79
2023/12/02 02:54:23;;;;;;;62.90;35.40;;;;;;;-128.00;-1.00;-1.00;103087;1254;1003748;-79
2023/12/02 02:56:51;;;;;;;64.70;32.80;;;;;;;-128.00;-1.00;-1.00;103028;1254;1005315;-79
2023/12/02 02:59:17;;;;;;;65.80;36.20;;;;;;;-128.00;-1.00;-1.00;103060;1254;1004148;-79
2023/12/02 03:01:45;;;;;;;65.40;35.30;;;;;;;-128.00;-1.00;-1.00;103029;1254;1005914;-79
2023/12/02 03:04:13;;;;;;;61.30;31.00;;;;;;;-128.00;-1.00;-1.00;104462;1254;1005055;-79
2023/12/02 03:06:40;;;;;;;60.60;34.50;;;;;;;-128.00;-1.00;-1.00;103208;1254;1004268;-79
2023/12/02 03:09:07;;;;;;;77.10;39.60;;;;;;;-128.00;-1.00;-1.00;103077;1254;1004573;-79
2023/12/02 03:11:33;;;;;;;68.90;36.00;;;;;;;-128.00;-1.00;-1.00;103065;1254;1004325;-79
2023/12/02 03:14:00;;;;;;;66.90;39.70;;;;;;;-128.00;-1.00;-1.00;103096;1257;1004420;-79
2023/12/02 03:16:26;;;;;;;68.00;33.30;;;;;;;-128.00;-1.00;-1.00;103129;1254;1004056;-79
2023/12/02 03:18:53;;;;;;;63.80;32.40;;;;;;;-128.00;-1.00;-1.00;103130;1253;1004361;-79
2023/12/02 03:21:20;;;;;;;62.50;31.60;;;;;;;-128.00;-1.00;-1.00;103077;1254;1004967;-79
2023/12/02 03:23:48;;;;;;;67.60;33.80;;;;;;;-128.00;-1.00;-1.00;104094;1254;1003942;-79
2023/12/02 03:26:17;;;;;;;;;;;;;;;-128.00;-1.00;-1.00;105569;1253;1045687;-79
2023/12/02 03:28:43;;;;;;;60.30;31.60;;;;;;;-128.00;-1.00;-1.00;105598;1253;1004508;-79
2023/12/02 03:31:10;;;;;;;64.70;31.40;;;;;;;-128.00;-1.00;-1.00;105330;1254;1005003;-79
2023/12/02 03:33:36;;;;;;;56.10;29.80;;;;;;;-128.00;-1.00;-1.00;103830;1253;1004583;-79
2023/12/02 03:36:03;;;;;;;51.20;27.30;;;;;;;-128.00;-1.00;-1.00;104232;1253;1004679;-79
2023/12/02 03:38:30;;;;;;;58.80;32.90;;;;;;;-128.00;-1.00;-1.00;103024;1253;1004981;-79
2023/12/02 03:40:56;;;;;;;62.60;36.00;;;;;;;-128.00;-1.00;-1.00;103089;1253;1003836;-79
2023/12/02 03:43:23;;;;;;;50.30;29.60;;;;;;;-128.00;-1.00;-1.00;103127;1253;1004443;-79
2023/12/02 03:45:50;;;;;;;52.00;28.80;;;;;;;-128.00;-1.00;-1.00;103003;1254;1004130;-79
2023/12/02 03:48:17;;;;;;;50.10;29.60;;;;;;;-128.00;-1.00;-1.00;103109;1253;1004882;-79
2023/12/02 03:50:43;;;;;;;56.90;29.70;;;;;;;-128.00;-1.00;-1.00;103133;1254;1004403;-79
2023/12/02 03:53:10;;;;;;;48.10;25.10;;;;;;;-128.00;-1.00;-1.00;103084;1254;1004062;-79
2023/12/02 03:55:36;;;;;;;45.00;22.90;;;;;;;-128.00;-1.00;-1.00;103126;1254;1005497;-79
2023/12/02 03:58:03;;;;;;;42.90;23.20;;;;;;;-128.00;-1.00;-1.00;103445;1253;1005149;-79
2023/12/02 04:00:29;;;;;;;55.20;31.20;;;;;;;-128.00;-1.00;-1.00;103579;1253;1005264;-79
2023/12/02 04:02:59;;;;;;;42.80;24.30;;;;;;;-128.00;-1.00;-1.00;103534;1253;1005057;-79
2023/12/02 04:05:25;;;;;;;47.40;23.20;;;;;;;-128.00;-1.00;-1.00;103630;1253;1047269;-79
2023/12/02 04:07:53;;;;;;;34.60;20.60;;;;;;;-128.00;-1.00;-1.00;103086;1255;1005349;-79
2023/12/02 04:10:20;;;;;;;39.40;21.00;;;;;;;-128.00;-1.00;-1.00;105316;1253;1003664;-80
2023/12/02 04:12:46;;;;;;;38.40;22.70;;;;;;;-128.00;-1.00;-1.00;105595;1253;1004069;-79
2023/12/02 04:15:13;;;;;;;36.50;21.10;;;;;;;-128.00;-1.00;-1.00;105577;1253;1005412;-79
2023/12/02 04:17:39;;;;;;;44.90;23.10;;;;;;;-128.00;-1.00;-1.00;105581;1253;1003642;-80
2023/12/02 04:20:11;;;;;;;50.90;29.00;;;;;;;-128.00;-1.00;-1.00;105585;1253;1003908;-79
2023/12/02 04:22:38;;;;;;;47.50;25.00;;;;;;;-128.00;-1.00;-1.00;105589;1253;1057032;-79
2023/12/02 04:25:05;;;;;;;43.90;24.40;;;;;;;-128.00;-1.00;-1.00;105537;1253;1004497;-79
2023/12/02 04:27:32;;;;;;;56.50;37.90;;;;;;;-128.00;-1.00;-1.00;105564;1253;1004309;-79
2023/12/02 04:29:58;;;;;;;69.10;40.90;;;;;;;-128.00;-1.00;-1.00;105586;1253;1003975;-79
2023/12/02 04:32:25;;;;;;;47.70;27.10;;;;;;;-128.00;-1.00;-1.00;105408;1253;1003730;-79
2023/12/02 04:34:52;;;;;;;47.50;25.90;;;;;;;-128.00;-1.00;-1.00;103385;1253;1004799;-79
2023/12/02 04:37:23;;;;;;;89.30;50.00;;;;;;;-128.00;-1.00;-1.00;103064;1253;1006747;-79
2023/12/02 04:39:51;;;;;;;51.10;28.70;;;;;;;-128.00;-1.00;-1.00;103069;1253;1048513;-79
2023/12/02 04:42:18;;;;;;;37.80;20.60;;;;;;;-128.00;-1.00;-1.00;104625;1253;1046562;-79
2023/12/02 04:44:45;;;;;;;38.40;20.40;;;;;;;-128.00;-1.00;-1.00;103133;1253;1004168;-79
2023/12/02 04:47:11;;;;;;;36.80;20.10;;;;;;;-128.00;-1.00;-1.00;103177;1253;1005252;-79
2023/12/02 04:49:38;;;;;;;42.10;21.40;;;;;;;-128.00;-1.00;-1.00;103164;1254;1004607;-80
2023/12/02 04:52:05;;;;;;;42.90;23.80;;;;;;;-128.00;-1.00;-1.00;103171;1253;1005127;-80
2023/12/02 04:54:33;;;;;;;60.40;37.00;;;;;;;-128.00;-1.00;-1.00;103164;1256;1004982;-80
2023/12/02 04:57:01;;;;;;;40.90;22.40;;;;;;;-128.00;-1.00;-1.00;103149;1253;1065157;-80
2023/12/02 04:59:27;;;;;;;40.00;22.90;;;;;;;-128.00;-1.00;-1.00;103055;1253;1004395;-80
2023/12/02 05:01:55;;;;;;;40.90;22.20;;;;;;;-128.00;-1.00;-1.00;103106;1253;1004044;-79
2023/12/02 05:04:21;;;;;;;45.60;21.60;;;;;;;-128.00;-1.00;-1.00;103063;1253;1004666;-79
2023/12/02 05:06:50;;;;;;;73.50;48.40;;;;;;;-128.00;-1.00;-1.00;103105;1254;1004325;-80
2023/12/02 05:09:17;;;;;;;43.90;26.30;;;;;;;-128.00;-1.00;-1.00;103081;1253;1065729;-79
2023/12/02 05:11:43;;;;;;;42.80;22.10;;;;;;;-128.00;-1.00;-1.00;103065;1254;1005020;-79
2023/12/02 05:14:10;;;;;;;37.00;19.60;;;;;;;-128.00;-1.00;-1.00;105562;1253;1004363;-79
2023/12/02 05:16:36;;;;;;;39.20;19.30;;;;;;;-128.00;-1.00;-1.00;105558;1253;1005076;-79
2023/12/02 05:19:03;;;;;;;30.50;16.10;;;;;;;-128.00;-1.00;-1.00;105349;1253;1004278;-79
2023/12/02 05:21:30;;;;;;;37.10;21.00;;;;;;;-128.00;-1.00;-1.00;105571;1253;1004184;-79
2023/12/02 05:23:56;;;;;;;46.90;30.60;;;;;;;-128.00;-1.00;-1.00;105564;1253;1004668;-79
2023/12/02 05:26:23;;;;;;;39.40;20.90;;;;;;;-128.00;-1.00;-1.00;102994;1253;1004135;-79
2023/12/02 05:28:50;;;;;;;35.70;19.70;;;;;;;-128.00;-1.00;-1.00;104098;1253;1004860;-79
2023/12/02 05:31:19;;;;;;;29.70;17.10;;;;;;;-128.00;-1.00;-1.00;104185;1253;1004704;-80
2023/12/02 05:33:46;;;;;;;;;;;;;;;-128.00;-1.00;-1.00;105240;1253;1062461;-80
2023/12/02 05:36:13;;;;;;;30.90;18.20;;;;;;;-128.00;-1.00;-1.00;105556;1253;1004139;-79
2023/12/02 05:38:40;;;;;;;39.40;20.30;;;;;;;-128.00;-1.00;-1.00;105534;1253;1004538;-79
2023/12/02 05:41:07;;;;;;;37.90;21.70;;;;;;;-128.00;-1.00;-1.00;105580;1253;1004377;-79
2023/12/02 05:43:33;;;;;;;41.30;25.30;;;;;;;-128.00;-1.00;-1.00;105592;1253;1003819;-79
2023/12/02 05:46:00;;;;;;;60.90;30.90;;;;;;;-128.00;-1.00;-1.00;105571;1253;1004186;-80
2023/12/02 05:48:27;;;;;;;35.10;20.60;;;;;;;-128.00;-1.00;-1.00;104789;1253;1003668;-79
2023/12/02 05:50:53;;;;;;;39.10;21.40;;;;;;;-128.00;-1.00;-1.00;103057;1253;1004226;-80
2023/12/02 05:53:20;;;;;;;50.10;28.50;;;;;;;-128.00;-1.00;-1.00;103101;1253;1004494;-79
2023/12/02 05:55:46;;;;;;;54.10;35.10;;;;;;;-128.00;-1.00;-1.00;103089;1253;1004506;-80
2023/12/02 05:58:13;;;;;;;50.30;32.60;;;;;;;-128.00;-1.00;-1.00;103438;1253;1004880;-79
2023/12/02 06:00:39;;;;;;;35.90;23.70;;;;;;;-128.00;-1.00;-1.00;105580;1253;1004702;-80
2023/12/02 06:03:06;;;;;;;33.90;20.20;;;;;;;-128.00;-1.00;-1.00;105578;1253;1004744;-80
2023/12/02 06:05:32;;;;;;;32.70;18.00;;;;;;;-128.00;-1.00;-1.00;104114;1257;1004849;-80
2023/12/02 06:07:59;;;;;;;26.70;16.30;;;;;;;-128.00;-1.00;-1.00;103657;1253;1004849;-80
2023/12/02 06:10:26;;;;;;;29.80;16.50;;;;;;;-128.00;-1.00;-1.00;103567;1253;1004959;-80
2023/12/02 06:12:52;;;;;;;28.20;16.00;;;;;;;-128.00;-1.00;-1.00;103515;1253;1004477;-80
2023/12/02 06:15:19;;;;;;;25.90;14.30;;;;;;;-128.00;-1.00;-1.00;103575;1253;1005121;-80
2023/12/02 06:17:46;;;;;;;27.20;14.30;;;;;;;-128.00;-1.00;-1.00;103568;1253;1003856;-80
2023/12/02 06:20:13;;;;;;;27.90;14.60;;;;;;;-128.00;-1.00;-1.00;103655;1253;1004788;-80
2023/12/02 06:22:39;;;;;;;24.80;13.50;;;;;;;-128.00;-1.00;-1.00;103561;1253;1003709;-79
2023/12/02 06:25:06;;;;;;;39.60;20.20;;;;;;;-128.00;-1.00;-1.00;102956;1253;1004951;-80
2023/12/02 06:27:33;;;;;;;27.30;15.80;;;;;;;-128.00;-1.00;-1.00;103045;1253;1005406;-80
2023/12/02 06:30:00;;;;;;;30.90;17.60;;;;;;;-128.00;-1.00;-1.00;103009;1253;1003970;-81
2023/12/02 06:32:26;;;;;;;34.80;19.70;;;;;;;-128.00;-1.00;-1.00;105422;1253;1003960;-80
2023/12/02 06:34:53;;;;;;;28.00;15.20;;;;;;;-128.00;-1.00;-1.00;105562;1253;1004044;-80
2023/12/02 06:37:19;;;;;;;31.50;16.80;;;;;;;-128.00;-1.00;-1.00;103120;1253;1004156;-79
2023/12/02 06:39:46;;;;;;;45.90;25.80;;;;;;;-128.00;-1.00;-1.00;102964;1259;1004581;-80
2023/12/02 06:42:13;;;;;;;138.90;67.90;;;;;;;-128.00;-1.00;-1.00;103092;1253;1003639;-79
2023/12/02 06:44:41;;;;;;;83.80;45.70;;;;;;;-128.00;-1.00;-1.00;103073;1253;1004449;-79
2023/12/02 06:47:08;;;;;;;59.00;30.50;;;;;;;-128.00;-1.00;-1.00;103067;1253;1064327;-79
2023/12/02 06:49:35;;;;;;;47.90;23.40;;;;;;;-128.00;-1.00;-1.00;103022;1253;1005241;-79
2023/12/02 06:52:01;;;;;;;44.40;23.10;;;;;;;-128.00;-1.00;-1.00;102959;1253;1004262;-79
2023/12/02 06:54:28;;;;;;;63.00;39.50;;;;;;;-128.00;-1.00;-1.00;103015;1253;1004649;-79
2023/12/02 06:56:54;;;;;;;39.60;24.40;;;;;;;-128.00;-1.00;-1.00;103018;1253;1005336;-79
2023/12/02 06:59:21;;;;;;;43.80;28.80;;;;;;;-128.00;-1.00;-1.00;103073;1253;1004654;-79
2023/12/02 07:01:47;;;;;;;34.50;18.50;;;;;;;-128.00;-1.00;-1.00;103060;1253;1004722;-79
2023/12/02 07:04:14;;;;;;;29.90;17.70;;;;;;;-128.00;-1.00;-1.00;103047;1253;1004467;-79
2023/12/02 07:06:41;;;;;;;41.90;23.20;;;;;;;-128.00;-1.00;-1.00;103059;1253;1004368;-79
2023/12/02 07:09:08;;;;;;;39.70;24.00;;;;;;;-128.00;-1.00;-1.00;103141;1253;1003992;-79
2023/12/02 07:11:35;;;;;;;68.00;43.40;;;;;;;-128.00;-1.00;-1.00;103069;1253;1005045;-80
2023/12/02 07:14:02;;;;;;;37.30;20.80;;;;;;;-128.00;-1.00;-1.00;103075;1253;1004459;-79
2023/12/02 07:16:29;;;;;;;40.10;25.70;;;;;;;-128.00;-1.00;-1.00;103074;1253;1004593;-79
2023/12/02 07:18:56;;;;;;;30.80;17.40;;;;;;;-128.00;-1.00;-1.00;104156;1253;1004753;-79
2023/12/02 07:21:22;;;;;;;32.10;20.00;;;;;;;-128.00;-1.00;-1.00;105415;1253;1003548;-80
2023/12/02 07:23:49;;;;;;;49.30;28.10;;;;;;;-128.00;-1.00;-1.00;103048;1255;1004861;-79
2023/12/02 07:26:16;;;;;;;27.10;16.50;;;;;;;-128.00;-1.00;-1.00;104540;1253;1004163;-80
2023/12/02 07:28:42;;;;;;;35.70;20.70;;;;;;;-128.00;-1.00;-1.00;103217;1253;1004669;-79
2023/12/02 07:31:15;;;;;;;22.80;12.50;;;;;;;-128.00;-1.00;-1.00;103049;1253;1004190;-79
2023/12/02 07:33:42;;;;;;;31.30;16.50;;;;;;;-128.00;-1.00;-1.00;102962;1253;1048020;-80
2023/12/02 07:36:09;;;;;;;24.70;14.90;;;;;;;-128.00;-1.00;-1.00;103017;1253;1004606;-79
2023/12/02 07:38:36;;;;;;;24.70;14.10;;;;;;;-128.00;-1.00;-1.00;105542;1253;1003890;-80
2023/12/02 07:41:02;;;;;;;26.70;16.80;;;;;;;-128.00;-1.00;-1.00;105550;1253;1004591;-80
2023/12/02 07:43:29;;;;;;;30.50;18.90;;;;;;;-128.00;-1.00;-1.00;105567;1253;1005209;-80
2023/12/02 07:45:55;;;;;;;28.80;16.50;;;;;;;-128.00;-1.00;-1.00;105553;1253;1003881;-80
2023/12/02 07:48:22;;;;;;;68.70;38.80;;;;;;;-128.00;-1.00;-1.00;102974;1256;1004125;-80
2023/12/02 07:50:49;;;;;;;90.20;51.30;;;;;;;-128.00;-1.00;-1.00;102937;1253;1005917;-80
2023/12/02 07:53:15;;;;;;;33.90;19.60;;;;;;;-128.00;-1.00;-1.00;102995;1253;1004750;-80
2023/12/02 07:55:42;;;;;;;27.70;15.70;;;;;;;-128.00;-1.00;-1.00;103090;1253;1005076;-80
2023/12/02 07:58:09;;;;;;;32.20;18.50;;;;;;;-128.00;-1.00;-1.00;105510;1253;1004130;-80
2023/12/02 08:00:35;;;;;;;47.20;31.50;;;;;;;-128.00;-1.00;-1.00;105062;1253;1004882;-79
2023/12/02 08:03:02;;;;;;;44.50;27.90;;;;;;;-128.00;-1.00;-1.00;103058;1253;1004573;-79
2023/12/02 08:05:28;;;;;;;64.30;41.00;;;;;;;-128.00;-1.00;-1.00;103111;1253;1005170;-79
2023/12/02 08:07:55;;;;;;;48.50;29.90;;;;;;;-128.00;-1.00;-1.00;103117;1253;1004607;-80
2023/12/02 08:10:22;;;;;;;35.20;20.40;;;;;;;-128.00;-1.00;-1.00;103042;1253;1004555;-79
2023/12/02 08:12:49;;;;;;;100.60;58.10;;;;;;;-128.00;-1.00;-1.00;103658;1253;1006185;-79
2023/12/02 08:15:16;;;;;;;134.80;105.80;;;;;;;-128.00;-1.00;-1.00;103141;1253;1004402;-80
2023/12/02 08:17:42;;;;;;;133.40;88.40;;;;;;;-128.00;-1.00;-1.00;103095;1253;1004715;-79
2023/12/02 08:20:09;;;;;;;71.70;46.70;;;;;;;-128.00;-1.00;-1.00;103038;1253;1005390;-79
2023/12/02 08:22:36;;;;;;;125.80;59.90;;;;;;;-128.00;-1.00;-1.00;103124;1253;1004189;-79
2023/12/02 08:25:03;;;;;;;35.00;19.90;;;;;;;-128.00;-1.00;-1.00;103295;1253;1004312;-79
2023/12/02 08:27:29;;;;;;;36.00;23.30;;;;;;;-128.00;-1.00;-1.00;104927;1253;1003705;-80
2023/12/02 08:29:56;;;;;;;339.90;140.20;;;;;;;-128.00;-1.00;-1.00;103103;1253;1004557;-79
2023/12/02 08:32:22;;;;;;;262.60;112.00;;;;;;;-128.00;-1.00;-1.00;103083;1253;1004351;-79
2023/12/02 08:34:49;;;;;;;81.30;43.70;;;;;;;-128.00;-1.00;-1.00;103102;1253;1003913;-80
2023/12/02 08:37:16;;;;;;;51.80;28.90;;;;;;;-128.00;-1.00;-1.00;103068;1253;1004337;-79
2023/12/02 08:39:42;;;;;;;83.40;51.80;;;;;;;-128.00;-1.00;-1.00;103097;1253;1004148;-79
2023/12/02 08:42:09;;;;;;;32.90;20.30;;;;;;;-128.00;-1.00;-1.00;103002;1253;1005197;-80
2023/12/02 08:44:37;;;;;;;33.60;20.10;;;;;;;-128.00;-1.00;-1.00;103053;1253;1004343;-79
2023/12/02 08:47:06;;;;;;;22.60;12.90;;;;;;;-128.00;-1.00;-1.00;103003;1253;1004997;-80
2023/12/02 08:49:32;;;;;;;48.20;26.50;;;;;;;-128.00;-1.00;-1.00;105175;1253;1062035;-79
2023/12/02 08:51:59;;;;;;;47.60;24.70;;;;;;;-128.00;-1.00;-1.00;103080;1257;1004720;-79
2023/12/02 08:54:25;;;;;;;43.20;23.60;;;;;;;-128.00;-1.00;-1.00;103066;1253;1004717;-79
2023/12/02 08:56:52;;;;;;;48.40;25.90;;;;;;;-128.00;-1.00;-1.00;103029;1253;1005635;-81
2023/12/02 08:59:18;;;;;;;33.70;15.80;;;;;;;-128.00;-1.00;-1.00;103008;1253;1004165;-79
2023/12/02 09:01:45;;;;;;;45.40;24.30;;;;;;;-128.00;-1.00;-1.00;103049;1253;1004638;-79
2023/12/02 09:04:11;;;;;;;64.10;37.20;;;;;;;-128.00;-1.00;-1.00;103084;1253;1004684;-79
2023/12/02 09:06:38;;;;;;;54.70;31.10;;;;;;;-128.00;-1.00;-1.00;102977;1253;1004194;-79
2023/12/02 09:09:05;;;;;;;78.30;38.90;;;;;;;-128.00;-1.00;-1.00;103083;1253;1003970;-79
2023/12/02 09:11:31;;;;;;;96.70;53.90;;;;;;;-128.00;-1.00;-1.00;103070;1253;1005509;-80
2023/12/02 09:13:58;;;;;;;88.40;46.40;;;;;;;-128.00;-1.00;-1.00;104266;1256;1004776;-80
2023/12/02 09:16:26;;;;;;;61.40;35.10;;;;;;;-128.00;-1.00;-1.00;105596;1253;1004404;-80
2023/12/02 09:18:52;;;;;;;136.30;71.80;;;;;;;-128.00;-1.00;-1.00;105560;1253;1003939;-80
2023/12/02 09:21:37;;;;;;;76.50;45.80;;;;;;;-128.00;-1.00;-1.00;105566;1253;1003817;-80
2023/12/02 09:24:05;;;;;;;97.60;50.20;;;;;;;-128.00;-1.00;-1.00;105590;1253;1047705;-80
2023/12/02 09:26:39;;;;;;;91.70;48.50;;;;;;;-128.00;-1.00;-1.00;105423;1253;1004931;-79
2023/12/02 09:29:06;;;;;;;116.80;58.60;;;;;;;-128.00;-1.00;-1.00;105445;1253;1058711;-79
2023/12/02 09:31:33;;;;;;;110.00;57.50;;;;;;;-128.00;-1.00;-1.00;105383;1253;1004375;-80
2023/12/02 09:34:02;;;;;;;89.70;45.90;;;;;;;-128.00;-1.00;-1.00;105442;1253;1004366;-80
2023/12/02 09:36:33;;;;;;;84.20;44.90;;;;;;;-128.00;-1.00;-1.00;105542;1253;1047589;-80
2023/12/02 09:39:20;;;;;;;44.50;26.30;;;;;;;-128.00;-1.00;-1.00;105331;1253;1061529;-80
2023/12/02 09:41:50;;;;;;;44.40;26.60;;;;;;;-128.00;-1.00;-1.00;104665;1253;1058113;-80
2023/12/02 09:44:33;;;;;;;54.30;33.80;;;;;;;-128.00;-1.00;-1.00;103113;1253;1061574;-79
2023/12/02 09:47:10;;;;;;;59.80;34.80;;;;;;;-128.00;-1.00;-1.00;103020;1253;1047331;-79
2023/12/02 09:50:11;;;;;;;44.10;23.20;;;;;;;-128.00;-1.00;-1.00;103035;1253;1047027;-79
2023/12/02 09:52:38;;;;;;;38.10;20.30;;;;;;;-128.00;-1.00;-1.00;103023;1253;1062825;-79
2023/12/02 09:55:32;;;;;;;64.70;37.50;;;;;;;-128.00;-1.00;-1.00;103519;1253;1004913;-79
2023/12/02 09:58:26;;;;;;;43.60;24.30;;;;;;;-128.00;-1.00;-1.00;103587;1253;1060575;-79
2023/12/02 10:00:54;;;;;;;34.10;17.80;;;;;;;-128.00;-1.00;-1.00;103420;1253;1046834;-80
2023/12/02 10:03:42;;;;;;;36.30;20.30;;;;;;;-128.00;-1.00;-1.00;103607;1253;1004373;-79
2023/12/02 10:06:33;;;;;;;54.20;30.80;;;;;;;-128.00;-1.00;-1.00;103542;1253;1063327;-80
2023/12/02 10:09:09;;;;;;;36.20;21.50;;;;;;;-128.00;-1.00;-1.00;103075;1253;1058530;-78
2023/12/02 10:11:38;;;;;;;47.60;24.40;;;;;;;-128.00;-1.00;-1.00;102909;1253;1061203;-78
2023/12/02 10:14:11;;;;;;;40.20;19.30;;;;;;;-128.00;-1.00;-1.00;104297;1257;1046541;-78
2023/12/02 10:16:38;;;;;;;51.00;23.90;;;;;;;-128.00;-1.00;-1.00;105609;1253;1047807;-78
2023/12/02 10:19:05;;;;;;;135.40;55.90;;;;;;;-128.00;-1.00;-1.00;103758;1253;1003738;-78
2023/12/02 10:21:32;;;;;;;124.90;56.90;;;;;;;-128.00;-1.00;-1.00;103130;1253;1005334;-79
2023/12/02 10:24:08;;;;;;;74.40;31.90;;;;;;;-128.00;-1.00;-1.00;103169;1253;1005555;-78
2023/12/02 10:26:50;;;;;;;43.70;22.40;;;;;;;-128.00;-1.00;-1.00;105639;1252;1046297;-79
2023/12/02 10:29:22;;;;;;;28.70;14.70;;;;;;;-128.00;-1.00;-1.00;105650;1252;1046507;-79
2023/12/02 10:32:08;;;;;;;55.40;30.70;;;;;;;-128.00;-1.00;-1.00;104170;1253;1061386;-78
2023/12/02 10:34:41;;;;;;;69.40;36.70;;;;;;;-128.00;-1.00;-1.00;103126;1253;1058811;-79
2023/12/02 10:37:08;;;;;;;50.60;27.10;;;;;;;-128.00;-1.00;-1.00;103360;1253;1059808;-79
2023/12/02 10:39:52;;;;;;;32.40;16.60;;;;;;;-128.00;-1.00;-1.00;105430;1253;1005097;-79
2023/12/02 10:42:27;;;;;;;41.40;22.00;;;;;;;-128.00;-1.00;-1.00;103043;1253;1048574;-79
2023/12/02 10:45:00;;;;;;;126.10;55.20;;;;;;;-128.00;-1.00;-1.00;105578;1253;1063805;-79
2023/12/02 10:47:26;;;;;;;109.70;51.10;;;;;;;-128.00;-1.00;-1.00;105285;1253;1059562;-79
2023/12/02 10:49:53;;;;;;;43.70;22.80;;;;;;;-128.00;-1.00;-1.00;105385;1253;1005043;-79
2023/12/02 10:52:20;;;;;;;36.30;19.90;;;;;;;-128.00;-1.00;-1.00;105397;1253;1004637;-79
2023/12/02 10:54:48;;;;;;;35.40;19.50;;;;;;;-128.00;-1.00;-1.00;105223;1254;1004314;-79
2023/12/02 10:57:14;;;;;;;43.70;23.20;;;;;;;-128.00;-1.00;-1.00;105240;1254;1004424;-79
2023/12/02 10:59:45;;;;;;;55.60;28.50;;;;;;;-128.00;-1.00;-1.00;105459;1254;1004848;-79
2023/12/02 11:02:31;;;;;;;240.70;98.40;;;;;;;-128.00;-1.00;-1.00;105440;1254;1059079;-79
2023/12/02 11:05:16;;;;;;;54.70;29.10;;;;;;;-128.00;-1.00;-1.00;105063;1254;1047135;-79